This is the latest recevied weather packets stored in our database for station/object KC1TWD. If no packets are shown the sender has not sent any weather packets the latest 1 day(s).
| Time | Temp. | Humidity | Pressure | Rain* | Wind** | Luminosity | Snow |
|---|---|---|---|---|---|---|---|
| 1777991993 | 24.44° C | 43% | 1007.9 hPa | 0 mm | 0.89 m/s, 169° | - | - |
| 1777991691 | 24.44° C | 43% | 1007.9 hPa | 0 mm | 0.45 m/s, 143° | - | - |
| 1777991387 | 23.89° C | 45% | 1007.9 hPa | 0 mm | 0.89 m/s, 111° | - | - |
| 1777991085 | 23.33° C | 45% | 1007.9 hPa | 0 mm | 0.89 m/s, 298° | - | - |
| 1777990782 | 23.33° C | 46% | 1007.8 hPa | 0 mm | 0.45 m/s, 320° | - | - |
| 1777990479 | 22.78° C | 46% | 1007.8 hPa | 0 mm | 0.45 m/s, 70° | - | - |
| 1777990176 | 22.78° C | 45% | 1007.9 hPa | 0 mm | 1.34 m/s, 105° | - | - |
| 1777989872 | 22.78° C | 47% | 1008.1 hPa | 0 mm | 0.45 m/s, 119° | - | - |
| 1777989571 | 22.22° C | 49% | 1008.1 hPa | 0 mm | 0 m/s | - | - |
| 1777989266 | 21.67° C | 48% | 1008.2 hPa | 0 mm | 0 m/s | - | - |
| 1777988962 | 20.56° C | 50% | 1008.1 hPa | 0 mm | 0 m/s | - | - |
| 1777988659 | 21.11° C | 50% | 1008.1 hPa | 0 mm | 0.89 m/s, 187° | - | - |
| 1777988355 | 21.11° C | 49% | 1008.2 hPa | 0 mm | 0 m/s | - | - |
| 1777988053 | 20.56° C | 50% | 1008.1 hPa | 0 mm | 0 m/s | - | - |
| 1777987748 | 20° C | 52% | 1008.2 hPa | 0 mm | 0.89 m/s, 288° | - | - |
| 1777987446 | 20° C | 52% | 1008.1 hPa | 0 mm | 0 m/s | - | - |
| 1777987143 | 19.44° C | 51% | 1008 hPa | 0 mm | 0.45 m/s, 168° | - | - |
| 1777986839 | 18.89° C | 54% | 1008.2 hPa | 0 mm | 0.45 m/s, 333° | - | - |
| 1777986537 | 18.89° C | 54% | 1008 hPa | 0 mm | 0 m/s | - | - |
| 1777986235 | 18.33° C | 58% | 1008.1 hPa | 0 mm | 0 m/s | - | - |
| 1777985932 | 18.33° C | 56% | 1008.1 hPa | 0 mm | 0 m/s | - | - |
| 1777985630 | 17.78° C | 57% | 1008 hPa | 0 mm | 0 m/s | - | - |
| 1777985326 | 17.78° C | 58% | 1008.1 hPa | 0 mm | 0 m/s | - | - |
| 1777985023 | 17.78° C | 58% | 1008.1 hPa | 0 mm | 0 m/s | - | - |
| 1777984719 | 17.78° C | 57% | 1008 hPa | 0 mm | 0.89 m/s, 305° | - | - |
* Rain latest hour (hover to see other rain measurements)
** Current wind speed in m/s (hover to see current wind gust speed)